Time;durP1;ratioP1;P1;durP2;ratioP2;P2;SDS_P1;SDS_P2;PMS_P1;PMS_P2;Temp;Humidity;BMP_temperature;BMP_pressure;BME280_temperature;BME280_humidity;BME280_pressure;Samples;Min_cycle;Max_cycle;Signal;HPM_P1;HPM_P2
2024/01/04 00:00:52;;;;;;;3.80;2.60;;;;;;;;;;6287479;28;20280;-64
2024/01/04 00:03:53;;;;;;;3.80;2.70;;;;;;;;;;6290148;28;20204;-64
2024/01/04 00:06:54;;;;;;;3.50;2.90;;;;;;;;;;6288051;28;20203;-64
2024/01/04 00:09:55;;;;;;;2.67;2.47;;;;;;;;;;6290869;28;20196;-64
2024/01/04 00:12:56;;;;;;;4.13;2.40;;;;;;;;;;6283736;28;20226;-64
2024/01/04 00:15:57;;;;;;;4.07;2.90;;;;;;;;;;6287484;28;20192;-64
2024/01/04 00:18:58;;;;;;;3.13;2.53;;;;;;;;;;6282040;28;20201;-64
2024/01/04 00:21:59;;;;;;;4.00;3.07;;;;;;;;;;6271217;28;20284;-64
2024/01/04 00:25:00;;;;;;;3.47;2.63;;;;;;;;;;6285496;28;20248;-64
2024/01/04 00:28:01;;;;;;;5.23;2.57;;;;;;;;;;6286114;28;20231;-64
2024/01/04 00:31:03;;;;;;;4.13;2.60;;;;;;;;;;6280481;28;20196;-64
2024/01/04 00:34:05;;;;;;;3.07;2.43;;;;;;;;;;6296958;28;20275;-64
2024/01/04 00:37:06;;;;;;;4.97;2.90;;;;;;;;;;6282529;28;20196;-64
2024/01/04 00:40:08;;;;;;;2.80;2.27;;;;;;;;;;6295280;28;20196;-64
2024/01/04 00:43:09;;;;;;;3.57;2.80;;;;;;;;;;6299437;28;20231;-64
2024/01/04 00:46:11;;;;;;;3.37;2.40;;;;;;;;;;6290366;28;20228;-64
2024/01/04 00:49:12;;;;;;;4.07;2.37;;;;;;;;;;6282667;28;20298;-64
2024/01/04 00:52:13;;;;;;;3.57;2.60;;;;;;;;;;6281650;28;20216;-64
2024/01/04 00:55:14;;;;;;;5.17;2.60;;;;;;;;;;6274686;28;20242;-64
2024/01/04 00:58:15;;;;;;;4.77;2.60;;;;;;;;;;6294827;28;20236;-64
2024/01/04 01:01:16;;;;;;;3.27;2.33;;;;;;;;;;6283792;28;20200;-65
2024/01/04 01:04:17;;;;;;;3.50;2.50;;;;;;;;;;6288884;28;20219;-65
2024/01/04 01:07:18;;;;;;;4.00;2.27;;;;;;;;;;6304670;28;20184;-65
2024/01/04 01:10:19;;;;;;;2.83;2.40;;;;;;;;;;6303581;28;20193;-65
2024/01/04 01:13:22;;;;;;;2.97;2.43;;;;;;;;;;6288548;28;20287;-65
2024/01/04 01:16:23;;;;;;;3.37;2.30;;;;;;;;;;6288794;28;20193;-65
2024/01/04 01:19:24;;;;;;;5.57;2.80;;;;;;;;;;6305646;28;20199;-65
2024/01/04 01:22:26;;;;;;;3.07;2.53;;;;;;;;;;6287945;28;20203;-65
2024/01/04 01:25:27;;;;;;;5.63;2.70;;;;;;;;;;6289859;28;20334;-65
2024/01/04 01:28:28;;;;;;;3.87;2.67;;;;;;;;;;6290344;28;20192;-65
2024/01/04 01:31:29;;;;;;;3.17;2.87;;;;;;;;;;6291674;28;20192;-65
2024/01/04 01:34:30;;;;;;;3.40;2.33;;;;;;;;;;6281960;28;20200;-65
2024/01/04 01:37:31;;;;;;;3.13;2.80;;;;;;;;;;6285404;28;20219;-65
2024/01/04 01:40:33;;;;;;;3.83;2.60;;;;;;;;;;6278146;28;20196;-65
2024/01/04 01:43:34;;;;;;;3.27;2.30;;;;;;;;;;6290114;28;20223;-64
2024/01/04 01:46:35;;;;;;;3.77;2.57;;;;;;;;;;6288363;28;20699;-64
2024/01/04 01:49:36;;;;;;;2.80;2.50;;;;;;;;;;6280824;28;20219;-64
2024/01/04 01:52:37;;;;;;;4.30;2.93;;;;;;;;;;6289757;28;20202;-64
2024/01/04 01:55:38;;;;;;;4.07;2.50;;;;;;;;;;6309469;28;20281;-64
2024/01/04 01:58:40;;;;;;;4.10;2.60;;;;;;;;;;6307826;28;20293;-64
2024/01/04 02:01:41;;;;;;;4.23;2.17;;;;;;;;;;6286103;28;20192;-64
2024/01/04 02:04:42;;;;;;;3.87;2.40;;;;;;;;;;6283104;28;20208;-65
2024/01/04 02:07:44;;;;;;;2.07;1.90;;;;;;;;;;6276908;28;20224;-65
2024/01/04 02:10:45;;;;;;;3.00;2.40;;;;;;;;;;6298914;28;20181;-65
2024/01/04 02:13:46;;;;;;;2.77;2.27;;;;;;;;;;6288416;28;20197;-65
2024/01/04 02:16:47;;;;;;;3.50;2.57;;;;;;;;;;6290859;28;20199;-65
2024/01/04 02:19:49;;;;;;;2.83;2.57;;;;;;;;;;6290575;28;20218;-65
2024/01/04 02:22:51;;;;;;;3.57;2.43;;;;;;;;;;6299151;28;20275;-64
2024/01/04 02:25:53;;;;;;;3.27;2.30;;;;;;;;;;6296874;28;20189;-64
2024/01/04 02:28:54;;;;;;;2.50;2.13;;;;;;;;;;6269009;28;20215;-64
2024/01/04 02:31:55;;;;;;;3.63;2.30;;;;;;;;;;6278788;28;20218;-64
2024/01/04 02:34:56;;;;;;;2.93;2.17;;;;;;;;;;6307637;28;20184;-64
2024/01/04 02:37:57;;;;;;;4.73;2.43;;;;;;;;;;6296026;28;20236;-64
2024/01/04 02:40:58;;;;;;;2.93;2.53;;;;;;;;;;6292155;28;20193;-64
2024/01/04 02:43:59;;;;;;;3.07;2.47;;;;;;;;;;6285785;28;20205;-64
2024/01/04 02:47:00;;;;;;;4.20;2.60;;;;;;;;;;6275840;28;20182;-64
2024/01/04 02:50:01;;;;;;;4.43;2.60;;;;;;;;;;6275047;28;20218;-64
2024/01/04 02:53:02;;;;;;;2.80;2.40;;;;;;;;;;6294060;28;20651;-65
2024/01/04 02:56:04;;;;;;;3.00;2.20;;;;;;;;;;6292197;28;20264;-65
2024/01/04 02:59:07;;;;;;;4.70;2.57;;;;;;;;;;6306656;28;20286;-65
2024/01/04 03:02:08;;;;;;;4.20;2.70;;;;;;;;;;6280021;28;20196;-65
2024/01/04 03:05:09;;;;;;;2.77;2.37;;;;;;;;;;6283444;28;20274;-65
2024/01/04 03:08:10;;;;;;;3.53;2.53;;;;;;;;;;6288567;28;20267;-65
2024/01/04 03:11:11;;;;;;;2.87;2.57;;;;;;;;;;6297198;28;20184;-65
2024/01/04 03:14:12;;;;;;;4.10;2.60;;;;;;;;;;6286911;28;20191;-65
2024/01/04 03:17:13;;;;;;;3.50;2.70;;;;;;;;;;6305484;28;20192;-65
2024/01/04 03:20:14;;;;;;;4.17;2.73;;;;;;;;;;6279117;28;20214;-65
2024/01/04 03:23:16;;;;;;;6.10;3.27;;;;;;;;;;6282294;28;20762;-65
2024/01/04 03:26:17;;;;;;;4.73;2.50;;;;;;;;;;6297039;28;20279;-65
2024/01/04 03:29:18;;;;;;;3.30;2.57;;;;;;;;;;6271954;28;20211;-65
2024/01/04 03:32:19;;;;;;;3.13;2.77;;;;;;;;;;6278788;28;20189;-65
2024/01/04 03:35:20;;;;;;;4.27;2.90;;;;;;;;;;6285033;28;20192;-65
2024/01/04 03:38:22;;;;;;;4.07;2.43;;;;;;;;;;6292485;28;20199;-65
2024/01/04 03:41:23;;;;;;;2.83;2.53;;;;;;;;;;6284365;28;20283;-65
2024/01/04 03:44:24;;;;;;;3.43;2.47;;;;;;;;;;6296361;28;20208;-65
2024/01/04 03:47:26;;;;;;;3.33;2.70;;;;;;;;;;6309162;28;20247;-65
2024/01/04 03:50:27;;;;;;;5.13;2.83;;;;;;;;;;6283374;28;20196;-65
2024/01/04 03:53:28;;;;;;;3.17;2.47;;;;;;;;;;6293864;28;20189;-65
2024/01/04 03:56:29;;;;;;;2.93;2.47;;;;;;;;;;6280185;28;20697;-65
2024/01/04 03:59:30;;;;;;;5.57;2.83;;;;;;;;;;6291865;28;20188;-65
2024/01/04 04:02:31;;;;;;;3.83;3.10;;;;;;;;;;6289872;28;20212;-65
2024/01/04 04:05:33;;;;;;;3.87;2.67;;;;;;;;;;6302646;28;20184;-65
2024/01/04 04:08:35;;;;;;;4.50;2.33;;;;;;;;;;6303942;28;20325;-65
2024/01/04 04:11:36;;;;;;;3.20;2.77;;;;;;;;;;6296465;28;20650;-65
2024/01/04 04:14:37;;;;;;;2.90;2.33;;;;;;;;;;6286943;28;20193;-65
2024/01/04 04:17:38;;;;;;;3.70;2.83;;;;;;;;;;6299959;28;20191;-65
2024/01/04 04:20:40;;;;;;;3.57;2.57;;;;;;;;;;6282606;28;20193;-65
2024/01/04 04:23:42;;;;;;;4.00;3.07;;;;;;;;;;6281227;28;20239;-65
2024/01/04 04:26:43;;;;;;;3.80;2.53;;;;;;;;;;6294786;28;20199;-65
2024/01/04 04:29:44;;;;;;;3.97;2.73;;;;;;;;;;6299600;28;20198;-65
2024/01/04 04:32:45;;;;;;;4.53;2.57;;;;;;;;;;6285497;28;20243;-65
2024/01/04 04:35:46;;;;;;;3.63;2.73;;;;;;;;;;6284129;28;20193;-65
2024/01/04 04:38:47;;;;;;;3.40;2.60;;;;;;;;;;6283076;28;20196;-65
2024/01/04 04:41:49;;;;;;;3.80;2.43;;;;;;;;;;6279550;28;20192;-65
2024/01/04 04:44:50;;;;;;;2.70;2.40;;;;;;;;;;6304967;28;20208;-65
2024/01/04 04:47:51;;;;;;;3.73;2.37;;;;;;;;;;6281228;28;20207;-64
2024/01/04 04:50:55;;;;;;;3.60;2.20;;;;;;;;;;6282491;28;20220;-64
2024/01/04 04:53:56;;;;;;;3.30;2.33;;;;;;;;;;6302763;28;20249;-64
2024/01/04 04:56:57;;;;;;;3.83;2.80;;;;;;;;;;6293286;28;20345;-64
2024/01/04 04:59:58;;;;;;;4.67;2.83;;;;;;;;;;6291408;28;20647;-64
2024/01/04 05:02:59;;;;;;;2.90;2.57;;;;;;;;;;6285629;28;20212;-64
2024/01/04 05:06:00;;;;;;;4.00;2.70;;;;;;;;;;6285732;28;20180;-64
2024/01/04 05:09:01;;;;;;;3.63;2.73;;;;;;;;;;6274158;28;20210;-64
2024/01/04 05:12:03;;;;;;;3.97;2.40;;;;;;;;;;6294248;28;20192;-64
2024/01/04 05:15:04;;;;;;;3.00;2.33;;;;;;;;;;6291948;28;20185;-64
2024/01/04 05:18:08;;;;;;;3.27;2.60;;;;;;;;;;6265860;28;20189;-64
2024/01/04 05:21:09;;;;;;;3.30;2.50;;;;;;;;;;6283899;28;20390;-64
2024/01/04 05:24:10;;;;;;;3.67;2.70;;;;;;;;;;6289407;28;20212;-64
2024/01/04 05:27:11;;;;;;;4.23;2.80;;;;;;;;;;6288073;28;20198;-64
2024/01/04 05:30:12;;;;;;;5.43;2.80;;;;;;;;;;6285665;28;20214;-64
2024/01/04 05:33:13;;;;;;;2.50;2.17;;;;;;;;;;6300686;28;20223;-64
2024/01/04 05:36:14;;;;;;;4.10;2.43;;;;;;;;;;6287571;28;20275;-64
2024/01/04 05:39:15;;;;;;;2.47;2.27;;;;;;;;;;6300912;28;20274;-64
2024/01/04 05:42:16;;;;;;;2.77;2.30;;;;;;;;;;6281624;28;20333;-64
2024/01/04 05:45:17;;;;;;;3.60;2.43;;;;;;;;;;6296874;28;20218;-64
2024/01/04 05:48:18;;;;;;;3.83;2.93;;;;;;;;;;6293266;28;20193;-64
2024/01/04 05:51:20;;;;;;;3.10;2.60;;;;;;;;;;6291791;28;20204;-64
2024/01/04 05:54:20;;;;;;;3.03;2.43;;;4.00;84.40;;;;;;6287712;28;20195;-64
2024/01/04 05:57:26;;;;;;;3.70;2.80;;;1.20;87.00;;;;;;6254873;28;20240;-64
2024/01/04 06:00:27;;;;;;;4.47;2.77;;;1.20;87.00;;;;;;6300951;28;20470;-64
2024/01/04 06:03:28;;;;;;;3.13;2.40;;;1.20;87.20;;;;;;6283700;28;20289;-64
2024/01/04 06:06:28;;;;;;;5.37;2.53;;;1.30;87.00;;;;;;6262796;28;20197;-64
2024/01/04 06:09:29;;;;;;;4.77;2.60;;;;;;;;;;6280848;28;20199;-65
2024/01/04 06:12:30;;;;;;;3.90;3.20;;;;;;;;;;6280118;28;20195;-65
2024/01/04 06:15:31;;;;;;;3.10;2.23;;;;;;;;;;6285379;28;20226;-65
2024/01/04 06:18:32;;;;;;;3.27;2.90;;;;;;;;;;6276756;28;20199;-65
2024/01/04 06:21:33;;;;;;;4.37;2.70;;;;;;;;;;6291857;28;20193;-65
2024/01/04 06:24:34;;;;;;;3.90;3.13;;;;;;;;;;6292428;28;20213;-65
2024/01/04 06:27:36;;;;;;;4.67;2.93;;;;;;;;;;6277605;28;20196;-65
2024/01/04 06:30:37;;;;;;;3.37;3.07;;;;;;;;;;6294400;28;20188;-64
2024/01/04 06:33:38;;;;;;;4.03;2.83;;;;;;;;;;6283003;28;20188;-65
2024/01/04 06:36:39;;;;;;;3.07;2.47;;;;;;;;;;6290628;28;20249;-65
2024/01/04 06:39:40;;;;;;;4.10;3.10;;;;;;;;;;6281800;28;20294;-65
2024/01/04 06:42:42;;;;;;;4.17;2.60;;;;;;;;;;6291550;28;20259;-65
2024/01/04 06:45:43;;;;;;;4.87;2.80;;;;;;;;;;6291463;28;20193;-65
2024/01/04 06:48:44;;;;;;;4.63;2.80;;;;;;;;;;6277318;28;20200;-67
2024/01/04 06:51:45;;;;;;;6.03;3.17;;;;;;;;;;6286716;28;20195;-65
2024/01/04 06:54:46;;;;;;;4.33;2.90;;;;;;;;;;6294700;28;20199;-65
2024/01/04 06:57:47;;;;;;;4.13;2.77;;;;;;;;;;6285275;28;20235;-65
2024/01/04 07:00:48;;;;;;;3.87;2.87;;;;;;;;;;6308841;28;20200;-67
2024/01/04 07:03:50;;;;;;;3.43;3.00;;;;;;;;;;6286944;28;20311;-65
2024/01/04 07:06:51;;;;;;;5.37;3.33;;;;;;;;;;6303371;28;20213;-65
2024/01/04 07:09:52;;;;;;;6.17;3.20;;;;;;;;;;6278878;28;20189;-63
2024/01/04 07:12:54;;;;;;;4.83;3.30;;;;;;;;;;6284362;28;20196;-64
2024/01/04 07:15:55;;;;;;;4.20;2.90;;;;;;;;;;6287773;28;20217;-66
2024/01/04 07:18:56;;;;;;;3.33;2.83;;;;;;;;;;6278248;28;20208;-65
2024/01/04 07:21:57;;;;;;;5.43;3.40;;;;;;;;;;6289490;28;20202;-64
2024/01/04 07:24:59;;;;;;;3.57;2.87;;;;;;;;;;6290039;28;20269;-64
2024/01/04 07:28:00;;;;;;;5.80;3.33;;;;;;;;;;6290949;28;20198;-64
2024/01/04 07:31:01;;;;;;;5.63;3.23;;;;;;;;;;6301635;28;20188;-64
2024/01/04 07:34:03;;;;;;;3.73;2.97;;;;;;;;;;6290894;28;20197;-64
2024/01/04 07:37:04;;;;;;;4.40;3.30;;;;;;;;;;6280715;28;20201;-65
2024/01/04 07:40:05;;;;;;;5.77;3.13;;;;;;;;;;6287009;28;20216;-64
2024/01/04 07:43:07;;;;;;;5.00;2.83;;;;;;;;;;6306544;28;20208;-65
2024/01/04 07:46:08;;;;;;;4.23;2.87;;;;;;;;;;6277845;28;20288;-64
2024/01/04 07:49:09;;;;;;;4.00;3.20;;;;;;;;;;6287121;28;20195;-64
2024/01/04 07:52:10;;;;;;;5.70;3.77;;;;;;;;;;6299147;28;20277;-64
2024/01/04 07:55:11;;;;;;;6.43;3.33;;;;;;;;;;6277859;28;20335;-64
2024/01/04 07:58:12;;;;;;;4.80;3.40;;;;;;;;;;6284061;28;20231;-66
2024/01/04 08:01:13;;;;;;;5.00;3.47;;;;;;;;;;6289224;28;20200;-66
2024/01/04 08:04:14;;;;;;;5.50;3.63;;;;;;;;;;6283522;28;20213;-64
2024/01/04 08:07:15;;;;;;;5.07;3.50;;;;;;;;;;6292590;28;20196;-65
2024/01/04 08:10:16;;;;;;;4.27;3.70;;;;;;;;;;6289059;28;20252;-64
2024/01/04 08:13:17;;;;;;;4.97;4.47;;;;;;;;;;6305184;28;20192;-65
2024/01/04 08:16:19;;;;;;;4.93;4.20;;;;;;;;;;6290956;28;20195;-65
2024/01/04 08:19:20;;;;;;;5.60;3.97;;;;;;;;;;6271671;28;20675;-64
2024/01/04 08:22:21;;;;;;;3.63;2.90;;;;;;;;;;6272464;28;20200;-63
2024/01/04 08:25:22;;;;;;;5.20;3.73;;;;;;;;;;6281485;28;20236;-63
2024/01/04 08:28:23;;;;;;;4.37;3.60;;;;;;;;;;6280697;28;20188;-63
2024/01/04 08:31:24;;;;;;;5.60;4.17;;;;;;;;;;6285200;28;20253;-64
2024/01/04 08:34:27;;;;;;;7.83;4.27;;;;;;;;;;6277851;28;20189;-63
2024/01/04 08:37:28;;;;;;;6.93;3.97;;;;;;;;;;6280572;28;20284;-64
2024/01/04 08:40:30;;;;;;;5.97;4.10;;;;;;;;;;6285422;28;20203;-64
2024/01/04 08:43:31;;;;;;;5.57;4.07;;;;;;;;;;6294398;28;20207;-64
2024/01/04 08:46:37;;;;;;;6.67;4.83;;;;;;;;;;6291108;28;20662;-64
2024/01/04 08:49:39;;;;;;;7.70;5.03;;;;;;;;;;6277373;28;20189;-64
2024/01/04 08:52:40;;;;;;;9.27;4.77;;;;;;;;;;6299237;28;20185;-64
2024/01/04 08:55:41;;;;;;;5.97;4.67;;;;;;;;;;6277186;28;20192;-65
2024/01/04 08:58:42;;;;;;;5.73;4.67;;;;;;;;;;6285790;28;20235;-65
2024/01/04 09:01:43;;;;;;;8.43;5.03;;;;;;;;;;6279029;28;20189;-65
2024/01/04 09:04:44;;;;;;;4.83;4.07;;;;;;;;;;6287967;28;20243;-65
2024/01/04 09:07:45;;;;;;;5.90;4.60;;;;;;;;;;6305396;28;20188;-64
2024/01/04 09:10:47;;;;;;;8.97;5.00;;;;;;;;;;6278486;28;20195;-64
2024/01/04 09:13:49;;;;;;;6.97;4.80;;;;;;;;;;6284824;28;20200;-64
2024/01/04 09:16:50;;;;;;;6.70;4.60;;;;;;;;;;6283189;28;20216;-64
2024/01/04 09:19:51;;;;;;;7.00;4.33;;;;;;;;;;6280193;28;20193;-64
2024/01/04 09:22:52;;;;;;;10.20;5.10;;;;;;;;;;6278950;28;20666;-65
2024/01/04 09:25:54;;;;;;;8.60;5.00;;;;;;;;;;6285610;28;20267;-64
2024/01/04 09:28:55;;;;;;;8.60;4.90;;;;;;;;;;6295427;28;20176;-64
2024/01/04 09:31:56;;;;;;;7.00;4.13;;;;;;;;;;6283271;28;20218;-64
2024/01/04 09:34:57;;;;;;;6.00;4.60;;;;;;;;;;6281236;28;20215;-64
2024/01/04 09:37:58;;;;;;;7.00;4.57;;;;;;;;;;6280435;28;20623;-64
2024/01/04 09:41:01;;;;;;;4.90;3.73;;;;;;;;;;6292275;28;20211;-64
2024/01/04 09:44:04;;;;;;;5.23;3.97;;;;;;;;;;6294398;28;20205;-64
2024/01/04 09:47:10;;;;;;;5.80;4.20;;;;;;;;;;6300724;28;20187;-64
2024/01/04 09:50:11;;;;;;;6.40;4.20;;;;;;;;;;6302017;28;20188;-64
2024/01/04 09:53:12;;;;;;;6.73;4.40;;;;;;;;;;6284381;28;20193;-63
2024/01/04 09:56:15;;;;;;;5.33;3.90;;;;;;;;;;6275351;28;20249;-64
2024/01/04 09:59:16;;;;;;;5.03;4.07;;;;;;;;;;6306965;28;20192;-64
2024/01/04 10:02:18;;;;;;;5.90;4.43;;;;;;;;;;6296136;28;20238;-64
2024/01/04 10:05:22;;;;;;;5.30;3.77;;;;;;;;;;6304214;28;20562;-64
2024/01/04 10:08:26;;;;;;;6.37;4.13;;;;;;;;;;6288120;28;20211;-64
2024/01/04 10:11:31;;;;;;;6.60;4.60;;;;;;;;;;6301923;28;20185;-64
2024/01/04 10:14:33;;;;;;;7.00;4.10;;;;;;;;;;6306595;28;20215;-64
2024/01/04 10:17:34;;;;;;;4.50;3.70;;;;;;;;;;6286287;28;20234;-64
2024/01/04 10:20:36;;;;;;;5.67;3.77;;;;;;;;;;6293390;28;20203;-64
2024/01/04 10:23:37;;;;;;;5.30;4.20;;;;;;;;;;6304542;28;20219;-64
2024/01/04 10:26:38;;;;;;;6.63;3.90;;;;;;;;;;6279608;28;20208;-64
2024/01/04 10:29:41;;;;;;;3.53;3.17;;;;;;;;;;6288809;28;20193;-65
2024/01/04 10:32:48;;;;;;;3.87;3.30;;;;;;;;;;6281730;28;20193;-64
2024/01/04 10:35:49;;;;;;;4.57;3.33;;;;;;;;;;6311206;28;20223;-65
2024/01/04 10:38:50;;;;;;;4.20;3.07;;;;;;;;;;6287223;28;20189;-64
2024/01/04 10:42:01;;;;;;;4.50;3.08;;;;;;;;;;6289010;28;20797;-66
2024/01/04 10:45:02;;;;;;;3.30;3.00;;;;;;;;;;6309112;28;20207;-64
2024/01/04 10:48:05;;;;;;;5.37;3.20;;;;;;;;;;6284134;28;20188;-64
2024/01/04 10:51:09;;;;;;;3.93;3.47;;;;;;;;;;6299536;28;20169;-64
2024/01/04 10:54:12;;;;;;;4.03;2.87;;;;;;;;;;6311553;28;20192;-64
2024/01/04 10:57:13;;;;;;;4.37;3.40;;;;;;;;;;6303153;28;20257;-65
2024/01/04 11:00:14;;;;;;;3.57;2.87;;;;;;;;;;6291626;28;20185;-64
2024/01/04 11:03:15;;;;;;;3.73;3.07;;;;;;;;;;6304958;28;20258;-65
2024/01/04 11:06:16;;;;;;;4.27;3.47;;;;;;;;;;6310763;28;20191;-65
2024/01/04 11:09:19;;;;;;;3.70;2.60;;;;;;;;;;6277313;28;20188;-65
2024/01/04 11:12:20;;;;;;;3.47;2.63;;;;;;;;;;6299401;28;20186;-65
2024/01/04 11:15:21;;;;;;;3.30;2.33;;;;;;;;;;6322203;28;20288;-64
2024/01/04 11:18:30;;;;;;;4.00;2.73;;;;;;;;;;6279241;28;20259;-65
2024/01/04 11:21:37;;;;;;;5.13;2.30;;;;;;;;;;6297463;28;20197;-65
2024/01/04 11:24:40;;;;;;;4.23;2.43;;;;;;;;;;6302414;28;20201;-65
2024/01/04 11:27:41;;;;;;;3.83;2.40;;;;;;;;;;6299389;28;20189;-65
2024/01/04 11:30:42;;;;;;;3.77;2.60;;;;;;;;;;6290794;28;20213;-64
2024/01/04 11:33:44;;;;;;;3.47;2.57;;;;;;;;;;6295905;28;20218;-64
2024/01/04 11:36:45;;;;;;;4.40;2.60;;;;;;;;;;6319008;28;20271;-64
2024/01/04 11:40:06;;;;;;;2.70;2.30;;;;;;;;;;6294285;28;20193;-65
2024/01/04 11:43:14;;;;;;;3.77;2.20;;;;;;;;;;6325759;28;20274;-64
2024/01/04 11:46:18;;;;;;;2.47;2.20;;;;;;;;;;6291051;28;20188;-64
2024/01/04 11:49:19;;;;;;;2.37;1.60;;;;;;;;;;6303005;28;20197;-63
2024/01/04 11:52:20;;;;;;;2.17;1.97;;;;;;;;;;6304645;28;20176;-64
2024/01/04 11:55:25;;;;;;;2.17;1.70;;;;;;;;;;6287223;28;20189;-64
2024/01/04 11:58:28;;;;;;;4.97;2.20;;;;;;;;;;6296412;28;20233;-63
2024/01/04 12:01:31;;;;;;;3.30;2.20;;;;;;;;;;6302341;28;20188;-64
2024/01/04 12:04:32;;;;;;;3.53;2.10;;;;;;;;;;6317371;28;20209;-66
2024/01/04 12:07:37;;;;;;;3.00;2.20;;;;;;;;;;6285757;28;20184;-66
2024/01/04 12:10:40;;;;;;;3.10;1.97;;;;;;;;;;6291783;28;20212;-66
2024/01/04 12:13:41;;;;;;;3.23;1.83;;;;;;;;;;6295515;28;20196;-66
2024/01/04 12:16:42;;;;;;;2.90;1.80;;;;;;;;;;6281200;28;20227;-67
2024/01/04 12:19:43;;;;;;;2.70;1.70;;;;;;;;;;6277449;28;20208;-65
2024/01/04 12:22:45;;;;;;;1.97;1.77;;;;;;;;;;6284481;28;20196;-65
2024/01/04 12:25:46;;;;;;;2.20;1.70;;;;;;;;;;6286217;28;20185;-65
2024/01/04 12:28:47;;;;;;;3.50;1.53;;;;;;;;;;6285352;28;20212;-65
2024/01/04 12:31:50;;;;;;;2.67;1.90;;;;;;;;;;6285089;28;20274;-65
2024/01/04 12:34:51;;;;;;;2.80;2.17;;;;;;;;;;6312422;28;20196;-65
2024/01/04 12:38:02;;;;;;;2.77;2.30;;;;;;;;;;6279003;28;20185;-65
2024/01/04 12:41:04;;;;;;;3.07;2.43;;;;;;;;;;6317710;28;20192;-65
2024/01/04 12:44:05;;;;;;;3.23;1.50;;;;;;;;;;6271701;28;20618;-66
2024/01/04 12:47:09;;;;;;;3.00;1.63;;;;;;;;;;6295368;28;20177;-66
2024/01/04 12:50:10;;;;;;;2.00;1.20;;;;;;;;;;6282126;28;20189;-65
2024/01/04 12:53:11;;;;;;;1.40;1.20;;;;;;;;;;6303153;28;20273;-66
2024/01/04 12:56:13;;;;;;;2.13;0.70;;;1.20;87.40;;;;;;6289659;28;20213;-66
2024/01/04 12:59:15;;;;;;;1.17;0.77;;;;;;;;;;6267392;28;20208;-66
2024/01/04 13:02:15;;;;;;;0.50;0.50;;;24.00;50.00;;;;;;6276572;28;20191;-66
2024/01/04 13:05:16;;;;;;;0.60;0.60;;;11.80;51.40;;;;;;6290547;28;20217;-66
2024/01/04 13:08:17;;;;;;;0.87;0.80;;;12.10;48.90;;;;;;6300919;28;20309;-66
2024/01/04 13:11:19;;;;;;;1.17;0.27;;;;;;;;;;6278464;28;20185;-66
2024/01/04 13:14:20;;;;;;;0.30;0.30;;;;;;;;;;6277585;28;20285;-66
2024/01/04 13:17:21;;;;;;;0.20;0.20;;;13.10;45.00;;;;;;6280909;28;20625;-67
2024/01/04 13:20:21;;;;;;;0.20;0.20;;;13.10;44.00;;;;;;6247948;28;20192;-66
2024/01/04 13:23:22;;;;;;;1.40;0.30;;;13.10;44.30;;;;;;6248476;28;20209;-66
2024/01/04 13:26:23;;;;;;;0.83;0.40;;;13.10;44.00;;;;;;6265044;28;20237;-67
2024/01/04 13:29:24;;;;;;;0.50;0.50;;;13.00;44.70;;;;;;6283796;28;20186;-67
2024/01/04 13:32:25;;;;;;;1.50;0.33;;;12.90;43.70;;;;;;6257970;28;20288;-67
2024/01/04 13:35:26;;;;;;;0.30;0.30;;;12.80;42.80;;;;;;6259788;28;20220;-66
2024/01/04 13:38:27;;;;;;;0.67;0.30;;;12.70;44.30;;;;;;6273805;28;20249;-66
2024/01/04 13:41:28;;;;;;;1.10;0.20;;;12.50;44.20;;;;;;6264372;28;20529;-66
2024/01/04 13:44:29;;;;;;;0.70;0.70;;;12.50;44.80;;;;;;6261658;28;20213;-66
2024/01/04 13:47:29;;;;;;;0.30;0.30;;;12.50;44.10;;;;;;6261036;28;20191;-66
2024/01/04 13:50:30;;;;;;;0.20;0.20;;;12.50;44.40;;;;;;6277291;28;20197;-66
2024/01/04 13:53:31;;;;;;;0.30;0.30;;;12.50;43.90;;;;;;6277902;28;20223;-66
2024/01/04 13:56:31;;;;;;;0.30;0.30;;;12.40;45.40;;;;;;6275819;28;20264;-67
2024/01/04 13:59:32;;;;;;;0.23;0.23;;;12.30;45.90;;;;;;6269624;28;20196;-67
2024/01/04 14:02:33;;;;;;;0.20;0.20;;;12.50;44.10;;;;;;6261805;28;20203;-68
2024/01/04 14:05:33;;;;;;;0.20;0.20;;;12.40;44.50;;;;;;6269704;28;20705;-67
2024/01/04 14:08:35;;;;;;;0.97;0.13;;;12.30;44.40;;;;;;6283861;28;20294;-68
2024/01/04 14:11:36;;;;;;;0.30;0.20;;;12.30;43.40;;;;;;6279853;28;20244;-67
2024/01/04 14:14:37;;;;;;;0.30;0.30;;;12.30;44.40;;;;;;6263938;28;20193;-68
2024/01/04 14:17:39;;;;;;;0.40;0.30;;;12.30;42.80;;;;;;6272464;28;20200;-68
2024/01/04 14:20:42;;;;;;;0.40;0.20;;;12.30;43.40;;;;;;6270619;28;20202;-68
2024/01/04 14:23:43;;;;;;;0.13;0.10;;;12.20;44.10;;;;;;6262342;28;20267;-69
2024/01/04 14:26:43;;;;;;;0.10;0.10;;;12.10;43.10;;;;;;6275694;28;20185;-68
2024/01/04 14:29:44;;;;;;;0.40;0.20;;;12.10;43.00;;;;;;6283096;28;20199;-68
2024/01/04 14:32:45;;;;;;;0.20;0.20;;;12.10;43.30;;;;;;6269863;28;20284;-68
2024/01/04 14:35:45;;;;;;;0.20;0.20;;;12.00;42.50;;;;;;6267736;28;20193;-68
2024/01/04 14:38:48;;;;;;;0.20;0.20;;;12.00;42.80;;;;;;6270602;28;20200;-68
2024/01/04 14:41:51;;;;;;;2.00;0.43;;;12.00;43.20;;;;;;6283510;28;20193;-68
2024/01/04 14:44:51;;;;;;;0.40;0.40;;;11.80;43.10;;;;;;6293427;28;20209;-68
2024/01/04 14:47:52;;;;;;;0.40;0.27;;;11.70;43.50;;;;;;6268579;28;20189;-68
2024/01/04 14:50:53;;;;;;;0.10;0.10;;;11.70;43.20;;;;;;6265636;28;20193;-68
2024/01/04 14:53:53;;;;;;;0.10;0.10;;;11.60;43.40;;;;;;6275095;28;20225;-65
2024/01/04 14:56:54;;;;;;;0.50;0.43;;;11.50;43.50;;;;;;6279420;28;20274;-68
2024/01/04 14:59:55;;;;;;;1.10;0.40;;;11.40;43.30;;;;;;6293129;28;20189;-68
2024/01/04 15:02:55;;;;;;;0.30;0.30;;;11.30;44.20;;;;;;6283995;28;20228;-68
2024/01/04 15:05:56;;;;;;;0.53;0.53;;;11.10;45.70;;;;;;6275743;28;20256;-68
2024/01/04 15:08:57;;;;;;;0.80;0.80;;;11.00;47.30;;;;;;6259908;28;20203;-68
2024/01/04 15:11:58;;;;;;;0.83;0.80;;;10.80;48.60;;;;;;6260679;28;20242;-68
2024/01/04 15:14:58;;;;;;;0.97;0.87;;;10.60;48.80;;;;;;6268208;28;20197;-68
2024/01/04 15:17:59;;;;;;;2.30;0.80;;;10.40;49.70;;;;;;6280877;28;20196;-67
2024/01/04 15:21:00;;;;;;;0.60;0.60;;;10.20;51.10;;;;;;6259083;28;20190;-68
2024/01/04 15:24:01;;;;;;;0.73;0.63;;;10.00;52.50;;;;;;6270942;28;20216;-68
2024/01/04 15:27:03;;;;;;;0.20;0.20;;;9.80;53.40;;;;;;6288863;28;20189;-68
2024/01/04 15:30:04;;;;;;;0.90;0.60;;;9.60;53.60;;;;;;6274606;28;20557;-68
2024/01/04 15:33:05;;;;;;;2.30;0.77;;;9.40;54.50;;;;;;6275214;28;20192;-68
2024/01/04 15:36:06;;;;;;;2.30;1.73;;;9.40;54.90;;;;;;6270316;28;20241;-67
2024/01/04 15:39:08;;;;;;;3.07;2.67;;;9.20;55.90;;;;;;6284569;28;20184;-68
2024/01/04 15:42:10;;;;;;;5.03;2.70;;;9.10;56.50;;;;;;6265279;28;20193;-68
2024/01/04 15:45:11;;;;;;;3.03;2.07;;;9.00;56.50;;;;;;6284693;28;20216;-67
2024/01/04 15:48:12;;;;;;;4.30;2.27;;;8.90;57.40;;;;;;6267081;28;20188;-66
2024/01/04 15:51:13;;;;;;;6.10;3.33;;;;;;;;;;6294216;28;20195;-66
2024/01/04 15:54:14;;;;;;;4.87;3.67;;;;;;;;;;6281119;28;20196;-66
2024/01/04 15:57:16;;;;;;;5.97;3.17;;;;;;;;;;6288632;28;20230;-65
2024/01/04 16:00:17;;;;;;;4.40;2.70;;;;;;;;;;6260570;28;20190;-65
2024/01/04 16:03:18;;;;;;;3.47;2.23;;;;;;;;;;6287946;28;20260;-66
2024/01/04 16:06:19;;;;;;;3.63;1.93;;;8.60;57.30;;;;;;6274727;28;20746;-66
2024/01/04 16:09:19;;;;;;;2.17;1.90;;;7.80;58.50;;;;;;6264146;28;20189;-66
2024/01/04 16:12:24;;;;;;;2.77;1.80;;;7.80;59.40;;;;;;6286956;28;20186;-66
2024/01/04 16:15:25;;;;;;;3.50;1.67;;;7.60;59.00;;;;;;6274786;28;20215;-66
2024/01/04 16:18:27;;;;;;;2.10;1.50;;;7.60;60.10;;;;;;6258485;28;20225;-66
2024/01/04 16:21:28;;;;;;;1.63;1.20;;;7.50;60.30;;;;;;6269239;28;20284;-66
2024/01/04 16:24:29;;;;;;;1.60;1.50;;;7.50;59.90;;;;;;6255290;28;20213;-66
2024/01/04 16:27:29;;;;;;;2.13;1.07;;;7.40;60.90;;;;;;6270465;28;20240;-65
2024/01/04 16:30:30;;;;;;;2.50;1.30;;;7.40;60.40;;;;;;6246383;28;20292;-66
2024/01/04 16:33:31;;;;;;;1.80;1.57;;;7.20;60.40;;;;;;6249277;28;20197;-66
2024/01/04 16:36:32;;;;;;;5.80;2.70;;;7.10;61.70;;;;;;6263834;28;20189;-63
2024/01/04 16:39:32;;;;;;;3.63;1.87;;;7.00;61.30;;;;;;6285367;28;20289;-68
2024/01/04 16:42:33;;;;;;;3.23;1.50;;;6.90;61.00;;;;;;6268574;28;20193;-63
2024/01/04 16:45:36;;;;;;;1.50;1.20;;;6.90;62.10;;;;;;6263211;28;20268;-66
2024/01/04 16:48:36;;;;;;;2.20;1.60;;;6.80;62.40;;;;;;6275281;28;20189;-65
2024/01/04 16:51:39;;;;;;;1.33;1.10;;;6.80;62.00;;;;;;6276977;28;20195;-64
2024/01/04 16:54:40;;;;;;;4.27;2.13;;;6.70;63.00;;;;;;6270312;28;20193;-65
2024/01/04 16:57:41;;;;;;;2.30;1.43;;;;;;;;;;6275610;28;20243;-64
2024/01/04 17:00:42;;;;;;;3.00;2.00;;;;;;;;;;6281185;28;20194;-65
2024/01/04 17:03:44;;;;;;;2.30;1.63;;;;;;;;;;6281557;28;20267;-65
2024/01/04 17:06:47;;;;;;;1.70;1.30;;;;;;;;;;6269986;28;20185;-64
2024/01/04 17:09:49;;;;;;;2.93;1.50;;;;;;;;;;6276029;28;20240;-67
2024/01/04 17:12:50;;;;;;;2.97;1.90;;;;;;;;;;6273452;28;20186;-67
2024/01/04 17:15:51;;;;;;;1.87;1.53;;;;;;;;;;6271345;28;20246;-67
2024/01/04 17:18:52;;;;;;;3.73;2.07;;;;;;;;;;6277289;28;20291;-68
2024/01/04 17:21:53;;;;;;;1.97;1.73;;;;;;;;;;6262778;28;20208;-66
2024/01/04 17:24:54;;;;;;;5.07;2.50;;;;;;;;;;6269028;28;20218;-66
2024/01/04 17:27:55;;;;;;;4.27;2.43;;;;;;;;;;6280572;28;20185;-66
2024/01/04 17:30:56;;;;;;;2.30;1.97;;;;;;;;;;6274900;28;20193;-66
2024/01/04 17:33:57;;;;;;;3.13;2.40;;;;;;;;;;6262890;28;20198;-66